Time;durP1;ratioP1;P1;durP2;ratioP2;P2;SDS_P1;SDS_P2;PMS_P1;PMS_P2;Temp;Humidity;BMP_temperature;BMP_pressure;BME280_temperature;BME280_humidity;BME280_pressure;Samples;Min_cycle;Max_cycle;Signal;HPM_P1;HPM_P2
2021/07/21 00:00:00;;;;;;;2.25;1.38;;;17.60;99.90;;;15.13;100.00;100907.69;3524393;39;102842;-84
2021/07/21 00:02:29;;;;;;;3.00;1.73;;;17.00;99.90;;;15.12;100.00;100912.22;3524290;39;100930;-83
2021/07/21 00:04:56;;;;;;;3.55;2.05;;;17.00;99.90;;;15.06;100.00;100911.06;3513002;39;101328;-83
2021/07/21 00:07:23;;;;;;;2.83;1.55;;;17.00;99.90;;;15.12;100.00;100912.22;3522599;39;99973;-83
2021/07/21 00:09:51;;;;;;;1.90;1.67;;;17.00;99.90;;;15.10;100.00;100922.34;3521782;39;100561;-81
2021/07/21 00:15:04;;;;;;;2.15;1.95;;;17.00;99.90;;;15.08;100.00;100919.81;3523310;39;100477;-82
2021/07/21 00:17:34;;;;;;;8.15;2.22;;;16.90;99.90;;;15.07;100.00;100915.47;3513719;39;99925;-83
2021/07/21 00:20:07;;;;;;;3.40;1.80;;;16.90;99.90;;;15.06;100.00;100913.78;3513587;39;100669;-83
2021/07/21 00:22:38;;;;;;;3.65;1.88;;;16.80;99.90;;;15.08;100.00;100919.81;3512560;39;101343;-83
2021/07/21 00:25:10;;;;;;;3.53;1.95;;;17.80;99.90;;;15.07;100.00;100920.84;3513490;39;100359;-83
2021/07/21 00:27:37;;;;;;;2.88;2.22;;;16.90;99.90;;;15.05;100.00;100911.25;3516999;39;100237;-83
2021/07/21 00:30:09;;;;;;;4.50;1.95;;;16.90;99.90;;;15.00;100.00;100908.22;3524754;39;100297;-83
2021/07/21 00:32:38;;;;;;;4.03;2.13;;;16.90;99.90;;;15.01;100.00;100915.28;3513442;39;101030;-83
2021/07/21 00:35:09;;;;;;;1.95;1.75;;;16.90;99.90;;;15.01;100.00;100917.97;3512731;39;101046;-83
2021/07/21 00:37:37;;;;;;;2.42;2.22;;;16.80;99.90;;;14.99;100.00;100920.00;3512291;39;99965;-83
2021/07/21 00:40:07;;;;;;;3.05;1.92;;;17.50;99.90;;;15.00;100.00;100922.53;3502877;39;101752;-83
2021/07/21 00:42:34;;;;;;;4.45;2.10;;;16.80;99.90;;;15.02;100.00;100919.66;3495748;39;103567;-83
2021/07/21 00:45:02;;;;;;;2.67;1.52;;;16.80;99.90;;;14.96;100.00;100914.97;3502927;39;101057;-84
2021/07/21 00:47:29;;;;;;;2.30;2.10;;;16.80;99.90;;;14.96;100.00;100917.66;3504131;39;100117;-83
2021/07/21 00:49:59;;;;;;;2.83;2.15;;;16.80;99.90;;;14.97;100.00;100922.00;3503296;39;102760;-83
2021/07/21 00:52:27;;;;;;;2.22;1.83;;;16.80;99.90;;;14.96;100.00;100921.16;3513520;39;100700;-83
2021/07/21 00:54:55;;;;;;;3.05;2.25;;;16.80;99.90;;;14.96;100.00;100923.88;3503872;39;102185;-84
2021/07/21 00:57:23;;;;;;;2.95;2.05;;;16.90;99.90;;;14.93;100.00;100920.69;3502723;39;100072;-83
2021/07/21 00:59:51;;;;;;;2.83;2.05;;;16.80;99.90;;;14.91;100.00;100923.56;3502639;39;102585;-82
2021/07/21 01:02:18;;;;;;;1.70;1.60;;;16.80;99.90;;;14.89;100.00;100917.50;3513496;39;101888;-83
2021/07/21 01:04:49;;;;;;;2.97;2.35;;;16.80;99.90;;;14.93;100.00;100921.53;3512106;39;100319;-83
2021/07/21 01:07:18;;;;;;;2.45;1.85;;;16.80;99.90;;;14.89;100.00;100930.97;3505496;39;100193;-83
2021/07/21 01:09:46;;;;;;;2.33;1.88;;;16.80;99.90;;;14.91;100.00;100922.72;3522373;39;100108;-84
2021/07/21 01:12:27;;;;;;;1.88;1.58;;;17.80;99.90;;;14.89;100.00;100920.19;3501557;39;102425;-83
2021/07/21 01:15:07;;;;;;;1.73;1.58;;;16.70;99.90;;;14.87;100.00;100922.22;3501757;39;102724;-82
2021/07/21 01:17:41;;;;;;;3.17;1.95;;;17.90;99.90;;;14.87;100.00;100919.50;3502381;39;100211;-83
2021/07/21 01:21:02;;;;;;;2.20;1.90;;;16.70;99.90;;;14.82;100.00;100918.34;3504355;39;102720;-83
2021/07/21 01:24:22;;;;;;;2.08;1.73;;;16.70;99.90;;;14.79;100.00;100918.69;3505968;39;103043;-82
2021/07/21 01:27:21;;;;;;;4.40;2.58;;;16.60;99.90;;;14.74;100.00;100922.72;3488039;39;102419;-81
2021/07/21 01:29:55;;;;;;;2.33;1.88;;;16.60;99.90;;;14.74;100.00;100916.50;3502953;39;100035;-82
2021/07/21 01:32:28;;;;;;;2.75;1.98;;;17.70;99.90;;;14.69;100.00;100927.81;3503971;39;103261;-83
2021/07/21 01:35:05;;;;;;;3.80;1.92;;;16.50;99.90;;;14.68;100.00;100936.88;3504464;39;103582;-84
2021/07/21 01:37:39;;;;;;;2.88;2.25;;;16.50;99.90;;;14.65;100.00;100929.13;3503568;39;101173;-82
2021/07/21 01:40:14;;;;;;;2.28;1.98;;;16.50;99.90;;;14.65;100.00;100933.69;3503102;39;100411;-81
2021/07/21 01:42:44;;;;;;;2.25;2.05;;;16.80;99.90;;;14.66;100.00;100940.75;3503234;39;102939;-83
2021/07/21 01:45:12;;;;;;;2.13;1.90;;;16.40;99.90;;;14.67;100.00;100935.19;3502479;39;101953;-83
2021/07/21 01:47:45;;;;;;;3.13;2.88;;;16.50;99.90;;;14.64;100.00;100940.91;3501562;39;102217;-83
2021/07/21 01:50:14;;;;;;;3.20;2.55;;;16.50;99.90;;;14.60;100.00;100939.56;3503960;39;100249;-86
2021/07/21 01:52:48;;;;;;;2.60;1.48;;;16.50;99.90;;;14.58;100.00;100949.69;3517386;39;103181;-82
2021/07/21 01:55:21;;;;;;;2.92;2.50;;;16.40;99.90;;;14.57;100.00;100957.94;3510852;39;101990;-83
2021/07/21 01:57:52;;;;;;;1.85;1.75;;;16.30;99.90;;;14.55;100.00;100960.78;3502050;39;102389;-83
2021/07/21 02:00:37;;;;;;;2.53;1.70;;;16.40;99.90;;;14.55;100.00;100960.78;3504367;39;100283;-83
2021/07/21 02:03:06;;;;;;;3.33;2.42;;;17.40;99.90;;;14.56;100.00;100964.31;3503926;39;102917;-83
2021/07/21 02:05:46;;;;;;;1.60;1.50;;;16.30;99.90;;;14.49;100.00;100966.81;3505023;39;103190;-83
2021/07/21 02:08:14;;;;;;;2.45;2.22;;;16.30;99.90;;;14.48;100.00;100967.84;3513980;39;100818;-84
2021/07/21 02:10:42;;;;;;;3.20;2.10;;;16.30;99.90;;;14.46;100.00;100971.72;3504028;39;100230;-82
2021/07/21 02:13:19;;;;;;;4.65;2.40;;;16.30;99.90;;;14.42;100.00;100973.91;3503862;39;102965;-82
2021/07/21 02:16:08;;;;;;;4.35;2.38;;;16.40;99.90;;;14.43;100.00;100975.59;3512094;39;103663;-81
2021/07/21 02:18:36;;;;;;;4.38;2.53;;;16.20;99.90;;;14.43;100.00;100975.59;3513694;39;100389;-81
2021/07/21 02:21:07;;;;;;;4.88;2.95;;;16.20;99.90;;;14.41;100.00;100971.38;3511852;39;100117;-82
2021/07/21 02:23:36;;;;;;;6.18;2.03;;;16.20;99.90;;;14.41;100.00;100976.75;3501378;39;102861;-81
2021/07/21 02:26:23;;;;;;;2.50;1.98;;;16.10;99.90;;;14.41;100.00;100990.22;3515170;39;100967;-82
2021/07/21 02:28:55;;;;;;;1.95;1.67;;;16.10;99.90;;;14.35;100.00;100991.69;3503505;39;102410;-82
2021/07/21 02:31:28;;;;;;;3.28;2.40;;;16.10;99.90;;;14.37;100.00;100997.75;3502884;39;100283;-83
2021/07/21 02:34:03;;;;;;;2.85;1.92;;;17.30;99.90;;;14.36;100.00;100987.97;3504713;39;103033;-82
2021/07/21 02:36:33;;;;;;;2.25;1.90;;;16.10;99.90;;;14.54;100.00;101001.34;3504883;39;102901;-82
2021/07/21 02:39:04;;;;;;;2.75;2.25;;;16.10;99.90;;;14.53;100.00;100999.66;3529502;39;99692;-82
2021/07/21 02:41:33;;;;;;;2.60;2.20;;;16.10;99.90;;;14.34;100.00;100998.91;3519407;39;99791;-84
2021/07/21 02:44:01;;;;;;;3.08;2.45;;;17.30;99.90;;;14.33;100.00;100999.94;3510870;39;101853;-82
2021/07/21 02:46:29;;;;;;;2.47;2.03;;;16.10;99.90;;;14.32;100.00;101002.81;3502502;39;102945;-83
2021/07/21 02:48:58;;;;;;;2.72;1.70;;;16.10;99.90;;;14.34;100.00;101000.78;3510337;39;102062;-81
2021/07/21 02:51:38;;;;;;;3.30;3.00;;;16.10;99.90;;;14.29;100.00;101011.19;3512355;39;100155;-81
2021/07/21 02:54:34;;;;;;;3.57;2.23;;;16.10;99.90;;;14.36;100.00;101004.97;3519640;39;101543;-82
2021/07/21 02:57:11;;;;;;;2.25;2.05;;;16.10;99.90;;;14.21;100.00;101011.19;3511132;39;103182;-83
2021/07/21 02:59:47;;;;;;;3.10;2.20;;;16.10;99.90;;;14.34;100.00;101014.25;3513264;39;102736;-83
2021/07/21 03:02:20;;;;;;;2.63;1.88;;;16.10;99.90;;;14.32;100.00;101009.03;3513349;39;100350;-83
2021/07/21 03:04:50;;;;;;;2.80;2.13;;;16.00;99.90;;;14.34;100.00;101022.31;3512349;39;100954;-83
2021/07/21 03:07:29;;;;;;;2.50;2.20;;;16.50;99.90;;;14.35;100.00;101027.50;3502058;39;101997;-84
2021/07/21 03:10:00;;;;;;;4.28;2.33;;;16.00;99.90;;;14.25;100.00;101024.13;3510170;39;100803;-83
2021/07/21 03:12:37;;;;;;;4.73;1.90;;;16.70;99.90;;;14.30;100.00;101021.81;3509994;39;100239;-83
2021/07/21 03:15:34;;;;;;;2.97;1.98;;;15.90;99.90;;;14.33;100.00;101026.88;3520337;39;103592;-83
2021/07/21 03:18:08;;;;;;;2.50;2.28;;;16.00;99.90;;;14.28;100.00;101029.19;3510591;39;103148;-83
2021/07/21 03:20:41;;;;;;;4.00;2.67;;;16.00;99.90;;;14.20;100.00;101025.66;3513156;39;100045;-83
2021/07/21 03:23:12;;;;;;;3.30;2.92;;;16.00;99.90;;;14.15;100.00;101036.88;3515570;39;100156;-86
2021/07/21 03:25:46;;;;;;;2.30;2.07;;;15.90;99.90;;;14.10;100.00;101044.59;3515419;39;102076;-83
2021/07/21 03:28:15;;;;;;;3.63;2.30;;;15.90;99.90;;;14.03;100.00;101055.19;3510487;39;101388;-84
2021/07/21 03:30:57;;;;;;;2.87;2.40;;;15.80;99.90;;;13.94;100.00;101052.63;3511248;39;102130;-83
2021/07/21 03:33:28;;;;;;;4.33;2.33;;;16.20;99.90;;;13.87;100.00;101056.94;3512067;39;100000;-83
2021/07/21 03:36:05;;;;;;;3.23;2.33;;;15.70;99.90;;;13.73;100.00;101069.13;3510612;39;100392;-83
2021/07/21 03:38:53;;;;;;;3.07;1.87;;;15.60;99.90;;;13.74;100.00;101078.06;3511229;39;102583;-83
2021/07/21 03:41:34;;;;;;;2.73;2.53;;;15.80;99.90;;;13.56;100.00;101088.88;3512036;39;102577;-83
2021/07/21 03:44:04;;;;;;;5.13;2.57;;;14.20;99.90;;;13.49;100.00;101104.78;3511407;39;100191;-83
2021/07/21 03:46:38;;;;;;;3.40;2.43;;;15.30;99.90;;;13.44;100.00;101130.47;3508391;39;102055;-84
2021/07/21 03:49:06;;;;;;;3.37;2.87;;;15.20;99.90;;;13.40;100.00;101150.59;3519953;39;102968;-82
2021/07/21 03:51:54;;;;;;;2.93;2.30;;;16.00;99.90;;;13.34;100.00;101168.19;3508010;39;100659;-82
2021/07/21 03:54:48;;;;;;;3.70;2.77;;;14.70;99.90;;;13.33;100.00;101187.16;3514442;39;101403;-83
2021/07/21 03:57:26;;;;;;;3.43;2.10;;;15.00;99.90;;;13.32;100.00;101209.66;3520719;39;101853;-83
2021/07/21 03:59:54;;;;;;;3.83;2.73;;;14.90;99.90;;;13.29;100.00;101240.38;3510998;39;102468;-83
2021/07/21 04:02:26;;;;;;;3.17;2.60;;;14.80;99.90;;;13.43;100.00;101271.25;3503218;39;102542;-84
2021/07/21 04:04:59;;;;;;;3.67;2.87;;;14.80;99.90;;;13.28;100.00;101295.97;3508582;39;100210;-83
2021/07/21 04:07:28;;;;;;;4.03;2.70;;;14.70;99.90;;;13.29;100.00;101420.47;3519892;39;100554;-82
2021/07/21 04:10:07;;;;;;;2.87;2.60;;;15.40;99.90;;;13.38;100.00;101469.78;3511083;39;100803;-83
2021/07/21 04:12:45;;;;;;;4.37;2.90;;;14.70;99.90;;;13.49;100.00;101491.97;3506723;39;101500;-83
2021/07/21 04:15:16;;;;;;;4.80;2.47;;;14.60;99.90;;;13.53;100.00;101492.53;3502747;39;100111;-83
2021/07/21 04:17:50;;;;;;;4.97;2.90;;;14.60;99.90;;;13.66;100.00;101477.75;3520073;39;103463;-83
2021/07/21 04:20:26;;;;;;;3.67;2.87;;;14.60;99.90;;;13.75;100.00;101469.75;3509906;39;103172;-84
2021/07/21 04:22:56;;;;;;;4.60;2.47;;;14.60;99.90;;;13.70;100.00;101440.66;3501197;39;101444;-83
2021/07/21 04:25:25;;;;;;;3.47;2.57;;;14.70;99.90;;;13.73;100.00;101431.41;3519378;39;100338;-84
2021/07/21 04:28:00;;;;;;;3.13;2.27;;;14.70;99.90;;;13.71;100.00;101406.53;3519014;39;103196;-83
2021/07/21 04:30:33;;;;;;;4.43;2.90;;;14.70;99.90;;;13.81;100.00;101396.53;3510829;39;102917;-82
2021/07/21 04:33:04;;;;;;;4.27;2.80;;;14.80;99.90;;;13.85;100.00;101387.16;3501997;39;100613;-82
2021/07/21 04:35:34;;;;;;;5.67;3.50;;;14.80;99.90;;;13.85;100.00;101374.53;3512450;39;100408;-83
2021/07/21 04:38:06;;;;;;;3.37;2.53;;;15.50;99.90;;;14.02;100.00;101357.56;3513156;39;100254;-83
2021/07/21 04:40:50;;;;;;;4.90;3.07;;;15.80;99.90;;;13.92;100.00;101342.50;3511482;39;101939;-83
2021/07/21 04:43:40;;;;;;;9.83;3.40;;;15.00;99.90;;;14.44;100.00;101326.47;3511328;39;100780;-83
2021/07/21 04:46:16;;;;;;;3.47;2.13;;;15.00;99.90;;;14.40;100.00;101285.53;3512216;39;99919;-82
2021/07/21 04:48:46;;;;;;;4.43;2.97;;;15.10;99.90;;;14.41;100.00;101241.47;3515412;39;101413;-82
2021/07/21 04:51:24;;;;;;;2.97;2.60;;;15.20;99.90;;;14.45;100.00;101217.75;3513978;39;102207;-84
2021/07/21 04:54:04;;;;;;;3.77;2.57;;;15.30;99.90;;;14.88;100.00;101195.19;3511596;39;102019;-83
2021/07/21 04:56:36;;;;;;;2.97;2.23;;;15.50;99.90;;;14.80;100.00;101165.53;3501789;39;100112;-83
2021/07/21 04:59:04;;;;;;;5.90;2.60;;;15.50;99.90;;;14.68;100.00;101147.00;3505988;39;102222;-83
2021/07/21 05:01:34;;;;;;;2.80;2.50;;;15.60;99.90;;;14.88;100.00;101133.22;3513362;39;102477;-83
2021/07/21 05:04:04;;;;;;;2.63;2.00;;;15.70;99.90;;;14.71;100.00;101118.88;3512840;39;100411;-84
2021/07/21 05:06:43;;;;;;;2.60;2.37;;;15.80;99.90;;;14.41;100.00;101114.06;3513054;39;101110;-84
2021/07/21 05:09:12;;;;;;;3.43;2.90;;;15.90;99.90;;;14.49;100.00;101119.47;3503318;39;103199;-82
2021/07/21 05:11:44;;;;;;;2.97;2.57;;;15.90;99.90;;;14.48;100.00;101115.09;3513973;39;103103;-82
2021/07/21 05:14:12;;;;;;;2.72;2.50;;;16.90;99.90;;;14.93;100.00;101110.16;3513185;39;100637;-83
2021/07/21 05:16:58;;;;;;;3.22;2.45;;;17.10;99.90;;;15.02;100.00;101089.44;3515659;39;100502;-81
2021/07/21 05:19:33;;;;;;;4.27;2.87;;;16.10;99.90;;;15.12;100.00;101078.50;3504905;39;102066;-83
2021/07/21 05:22:01;;;;;;;4.90;2.90;;;16.20;99.90;;;15.51;100.00;101070.56;3506400;39;103213;-83
2021/07/21 05:24:28;;;;;;;3.37;2.50;;;17.30;99.90;;;15.33;100.00;101049.19;3514381;39;102431;-82
2021/07/21 05:26:56;;;;;;;4.40;3.37;;;16.50;99.90;;;15.54;100.00;101051.34;3524445;39;100323;-81
2021/07/21 05:29:27;;;;;;;2.60;2.38;;;16.60;99.90;;;15.72;100.00;101031.25;3515236;39;101160;-82
2021/07/21 05:32:09;;;;;;;6.00;3.00;;;16.70;99.90;;;15.72;100.00;101012.34;3526390;39;102058;-83
2021/07/21 05:34:37;;;;;;;4.40;2.60;;;17.50;99.90;;;15.74;100.00;101004.94;3517325;39;100227;-83
2021/07/21 05:37:34;;;;;;;5.13;2.63;;;17.00;99.90;;;16.30;100.00;101011.09;3510753;39;99965;-83
2021/07/21 05:40:09;;;;;;;3.13;2.20;;;17.20;99.90;;;16.09;100.00;100990.09;3523299;39;103722;-83
2021/07/21 05:42:59;;;;;;;3.72;2.92;;;17.30;99.90;;;16.19;100.00;100997.16;3511220;39;100409;-83
2021/07/21 05:45:30;;;;;;;6.53;2.63;;;17.40;99.90;;;16.57;100.00;100988.09;3513611;39;102294;-83
2021/07/21 05:47:58;;;;;;;5.65;2.80;;;17.50;99.90;;;16.58;100.00;100981.69;3515500;39;100100;-84
2021/07/21 05:50:27;;;;;;;3.22;2.35;;;17.60;99.90;;;17.04;100.00;100981.69;3506189;39;101706;-84
2021/07/21 05:52:57;;;;;;;5.15;2.42;;;18.70;99.90;;;17.42;100.00;100969.81;3505833;39;103522;-83
2021/07/21 05:55:29;;;;;;;5.10;2.83;;;18.00;99.90;;;17.16;100.00;100969.41;3512721;39;101000;-83
2021/07/21 05:57:56;;;;;;;3.25;2.65;;;18.20;99.90;;;17.10;100.00;100970.13;3505442;39;100209;-82
2021/07/21 06:00:24;;;;;;;5.03;2.72;;;18.40;99.90;;;17.33;100.00;100970.06;3511628;39;101942;-81
2021/07/21 06:02:59;;;;;;;6.85;2.85;;;18.60;99.90;;;17.42;100.00;100967.09;3521815;39;101201;-82
2021/07/21 06:05:47;;;;;;;2.83;2.03;;;20.00;99.90;;;17.29;100.00;100963.34;3516489;39;101014;-82
2021/07/21 06:08:43;;;;;;;3.17;2.22;;;19.10;99.90;;;17.30;100.00;100968.59;3504761;39;100337;-82
2021/07/21 06:11:19;;;;;;;4.65;2.80;;;19.40;99.90;;;17.04;100.00;100969.00;3511811;39;103072;-82
2021/07/21 06:13:46;;;;;;;7.65;2.22;;;19.60;99.90;;;17.03;100.00;100980.84;3516537;39;100998;-82
2021/07/21 06:16:15;;;;;;;3.10;1.98;;;19.80;99.90;;;16.94;100.00;100981.09;3514770;39;102858;-84
2021/07/21 06:18:44;;;;;;;3.55;2.00;;;20.00;99.90;;;17.02;100.00;100989.97;3522644;39;99971;-82
2021/07/21 06:21:13;;;;;;;4.07;2.20;;;20.00;99.90;;;16.90;100.00;100998.72;3514250;39;101852;-83
2021/07/21 06:24:00;;;;;;;3.67;2.22;;;20.90;99.90;;;16.85;100.00;101001.94;3516125;39;102360;-84
2021/07/21 06:26:28;;;;;;;2.55;1.85;;;20.20;99.90;;;16.75;100.00;101012.16;3513840;39;101992;-83
2021/07/21 06:29:02;;;;;;;3.60;2.97;;;19.90;99.90;;;16.65;100.00;101019.69;3505415;39;100369;-83
2021/07/21 06:31:29;;;;;;;4.15;3.08;;;20.10;99.90;;;16.60;100.00;101025.56;3502569;39;102996;-84
2021/07/21 06:33:57;;;;;;;3.08;2.42;;;20.10;99.90;;;16.84;100.00;101030.00;3514342;39;101186;-81
2021/07/21 06:36:26;;;;;;;3.25;2.15;;;20.00;99.90;;;16.79;100.00;101045.94;3506599;39;100706;-83
2021/07/21 06:38:53;;;;;;;2.80;1.95;;;20.00;99.90;;;17.10;100.00;101035.03;3504957;40;99953;-83
2021/07/21 06:41:35;;;;;;;5.57;2.63;;;20.00;99.90;;;16.73;100.00;101038.53;3507665;39;103204;-84
2021/07/21 06:44:05;;;;;;;3.40;1.83;;;20.00;99.90;;;16.98;100.00;101048.13;3515169;39;103130;-83
2021/07/21 06:46:50;;;;;;;3.90;2.58;;;20.00;99.90;;;16.83;100.00;101050.78;3516804;39;102661;-83
2021/07/21 06:49:25;;;;;;;2.72;2.17;;;20.90;99.90;;;16.82;100.00;101048.25;3514532;39;100352;-83
2021/07/21 06:51:53;;;;;;;3.38;2.22;;;20.90;99.90;;;16.60;100.00;101051.75;3512730;39;101713;-83
2021/07/21 06:54:27;;;;;;;5.10;2.40;;;20.10;99.90;;;17.23;100.00;101054.16;3523983;39;103348;-83
2021/07/21 06:57:13;;;;;;;2.30;2.05;;;20.20;99.90;;;17.07;100.00;101060.56;3527712;39;100265;-83
2021/07/21 06:59:46;;;;;;;2.88;2.35;;;20.30;99.90;;;16.78;100.00;101066.72;3538644;39;99251;-82
2021/07/21 07:02:24;;;;;;;3.55;2.03;;;20.30;99.90;;;16.96;100.00;101065.53;3526094;39;101871;-84
2021/07/21 07:05:27;;;;;;;3.63;2.13;;;20.40;99.80;;;17.24;100.00;101067.50;3504708;40;100266;-83
2021/07/21 07:08:14;;;;;;;3.75;2.10;;;20.40;99.70;;;17.10;100.00;101067.47;3515042;39;100782;-81
2021/07/21 07:11:00;;;;;;;4.03;2.95;;;20.40;99.50;;;16.83;100.00;101066.16;3516138;39;100003;-82
2021/07/21 07:13:26;;;;;;;4.55;2.72;;;20.40;99.30;;;17.03;100.00;101075.47;3513554;39;101192;-82
2021/07/21 07:15:55;;;;;;;2.65;1.92;;;20.40;99.20;;;17.22;100.00;101072.25;3514496;39;100689;-84
2021/07/21 07:18:22;;;;;;;6.00;2.53;;;20.40;99.30;;;17.11;100.00;101077.25;3510897;39;100501;-84
2021/07/21 07:20:51;;;;;;;5.40;2.75;;;20.40;99.20;;;17.11;100.00;101082.66;3506770;39;100374;-83
2021/07/21 07:23:19;;;;;;;4.15;3.10;;;20.40;99.20;;;17.10;100.00;101083.69;3523316;39;101167;-83
2021/07/21 07:25:46;;;;;;;4.13;3.10;;;20.40;99.20;;;17.14;100.00;101091.28;3514693;39;102992;-83
2021/07/21 07:28:14;;;;;;;3.22;2.00;;;20.30;99.40;;;17.49;100.00;101073.53;3514172;39;102543;-83
2021/07/21 07:30:41;;;;;;;2.90;2.13;;;20.30;99.60;;;17.43;100.00;101070.75;3525954;39;100267;-83
2021/07/21 07:33:08;;;;;;;5.07;2.30;;;20.40;99.80;;;17.35;100.00;101082.47;3523903;39;101061;-84
2021/07/21 07:35:37;;;;;;;6.45;3.53;;;20.20;99.50;;;17.44;100.00;101080.50;3513736;39;101727;-84
2021/07/21 07:38:07;;;;;;;3.30;2.40;;;20.50;99.50;;;17.41;100.00;101065.50;3514924;39;102818;-85
2021/07/21 07:40:35;;;;;;;4.90;2.38;;;20.50;99.40;;;17.17;100.00;101076.56;3528791;39;100498;-84
2021/07/21 07:43:02;;;;;;;4.57;2.72;;;20.50;99.10;;;17.09;100.00;101080.16;3536105;39;100943;-81
2021/07/21 07:45:29;;;;;;;3.17;2.13;;;20.50;99.00;;;17.57;100.00;101081.56;3527470;39;101953;-81
2021/07/21 07:47:57;;;;;;;5.95;3.17;;;20.50;99.00;;;17.19;100.00;101075.31;3522483;39;100537;-84
2021/07/21 07:50:24;;;;;;;4.00;2.42;;;20.60;98.80;;;17.51;100.00;101076.91;3528997;39;100360;-84
2021/07/21 07:52:52;;;;;;;2.97;2.28;;;20.50;98.80;;;17.59;100.00;101068.69;3518500;39;103268;-82
2021/07/21 07:55:19;;;;;;;4.78;2.60;;;20.60;98.80;;;17.72;100.00;101064.53;3526616;39;101119;-82
2021/07/21 07:57:47;;;;;;;5.72;2.65;;;20.70;98.80;;;17.76;100.00;101068.56;3521441;39;100866;-83
2021/07/21 08:00:16;;;;;;;4.10;2.58;;;20.80;98.50;;;17.98;100.00;101064.06;3524307;39;100084;-85
2021/07/21 08:02:43;;;;;;;2.92;1.95;;;20.80;98.50;;;17.89;100.00;101060.63;3524891;39;100914;-83
2021/07/21 08:05:12;;;;;;;2.97;2.58;;;21.00;98.50;;;18.08;100.00;101053.78;3524935;39;101119;-83
2021/07/21 08:07:39;;;;;;;5.25;2.95;;;21.00;98.30;;;17.89;100.00;101056.06;3521663;39;100424;-82
2021/07/21 08:10:12;;;;;;;3.95;2.90;;;21.10;98.40;;;17.69;100.00;101062.19;3512504;39;100580;-82
2021/07/21 08:12:42;;;;;;;4.15;2.70;;;21.10;98.10;;;17.89;100.00;101066.91;3524258;39;100984;-82
2021/07/21 08:15:13;;;;;;;2.67;2.15;;;21.20;97.90;;;18.00;100.00;101065.56;3517259;39;101148;-83
2021/07/21 08:17:41;;;;;;;2.72;2.25;;;21.20;97.90;;;18.43;100.00;101073.81;3501662;39;100399;-84
2021/07/21 08:20:09;;;;;;;2.53;2.20;;;21.20;97.90;;;18.18;100.00;101062.47;3501748;39;99974;-86
2021/07/21 08:22:40;;;;;;;2.95;2.33;;;21.30;97.80;;;18.29;100.00;101062.00;3511743;39;101617;-83
2021/07/21 08:25:11;;;;;;;3.05;2.50;;;21.80;97.70;;;18.42;100.00;101062.13;3512919;39;101285;-85
2021/07/21 08:27:41;;;;;;;4.78;2.92;;;21.60;97.40;;;18.25;100.00;101063.41;3512514;39;102253;-82
2021/07/21 08:30:13;;;;;;;5.18;3.00;;;21.70;97.00;;;18.40;100.00;101060.66;3535222;39;100151;-82
2021/07/21 08:32:42;;;;;;;4.05;2.33;;;21.80;96.60;;;18.70;100.00;101061.44;3523955;39;100494;-83
2021/07/21 08:35:11;;;;;;;2.78;2.42;;;22.00;96.50;;;18.68;100.00;101058.91;3523116;39;102188;-83
2021/07/21 08:37:39;;;;;;;3.28;2.15;;;21.90;96.30;;;18.97;100.00;101058.81;3524314;39;100633;-83
2021/07/21 08:40:09;;;;;;;4.20;2.63;;;22.00;96.10;;;18.75;100.00;101050.88;3526466;39;100499;-82
2021/07/21 08:42:36;;;;;;;3.67;3.03;;;22.20;95.80;;;18.79;100.00;101054.88;3522459;39;100271;-84
2021/07/21 08:45:05;;;;;;;5.63;2.63;;;22.50;95.50;;;18.90;100.00;101059.78;3522819;39;100866;-83
2021/07/21 08:47:34;;;;;;;4.47;2.83;;;22.50;95.10;;;18.78;100.00;101054.03;3523560;39;100122;-83
2021/07/21 08:50:02;;;;;;;7.65;2.83;;;22.60;94.40;;;19.01;100.00;101053.84;3508542;39;100449;-84
2021/07/21 08:52:31;;;;;;;3.70;2.22;;;22.60;94.10;;;19.10;100.00;101049.97;3507729;39;102052;-84
2021/07/21 08:54:59;;;;;;;5.97;2.47;;;22.80;93.70;;;19.49;100.00;101043.22;3516164;39;101578;-82
2021/07/21 08:57:31;;;;;;;3.70;2.63;;;22.80;93.60;;;19.54;100.00;101048.84;3504107;39;102812;-81
2021/07/21 09:00:00;;;;;;;2.75;2.28;;;23.00;93.10;;;19.63;100.00;101047.69;3505873;39;100449;-84
2021/07/21 09:02:28;;;;;;;4.75;2.70;;;23.20;92.60;;;19.93;100.00;101038.25;3522941;39;100895;-84
2021/07/21 09:04:58;;;;;;;3.58;2.33;;;23.40;92.40;;;20.45;100.00;101042.25;3523352;39;101280;-83
2021/07/21 09:07:25;;;;;;;2.70;2.35;;;23.60;92.30;;;20.37;100.00;101034.31;3524968;39;100410;-84
2021/07/21 09:09:52;;;;;;;2.75;2.15;;;23.90;91.70;;;20.00;100.00;101033.72;3523006;39;99983;-84
2021/07/21 09:12:19;;;;;;;1.98;1.77;;;24.10;89.50;;;19.81;100.00;101037.13;3502929;39;104955;-85
2021/07/21 09:14:46;;;;;;;2.85;1.95;;;24.70;89.40;;;20.24;100.00;101042.38;3514923;39;102082;-84
2021/07/21 09:17:16;;;;;;;7.88;2.65;;;24.30;88.90;;;20.22;100.00;101030.88;3519137;39;102365;-83
2021/07/21 09:19:46;;;;;;;5.07;3.17;;;25.20;88.70;;;19.85;100.00;101041.13;3510620;39;100970;-83
2021/07/21 09:22:17;;;;;;;4.75;2.50;;;23.70;85.20;;;20.16;100.00;101035.22;3518245;39;103014;-85
2021/07/21 09:24:47;;;;;;;2.58;2.13;;;24.60;85.60;;;19.88;100.00;101040.75;3522574;39;101416;-85
2021/07/21 09:27:14;;;;;;;3.42;2.15;;;24.80;83.80;;;20.17;100.00;101036.91;3512445;39;102134;-83
2021/07/21 09:29:42;;;;;;;2.88;1.98;;;24.80;83.40;;;19.79;100.00;101036.50;3522873;39;100197;-83
2021/07/21 09:32:10;;;;;;;5.65;3.17;;;24.90;82.90;;;20.25;100.00;101042.19;3518139;39;101346;-82
2021/07/21 09:34:37;;;;;;;4.60;2.67;;;25.00;81.20;;;20.52;100.00;101034.16;3512592;39;101199;-84
2021/07/21 09:37:08;;;;;;;3.53;2.13;;;24.90;81.20;;;20.61;100.00;101038.34;3512287;39;100018;-84
2021/07/21 09:39:40;;;;;;;2.90;2.17;;;25.00;79.80;;;20.74;100.00;101022.06;3503362;39;100311;-84
2021/07/21 09:42:11;;;;;;;4.38;2.83;;;25.20;79.70;;;20.77;100.00;101024.38;3523331;39;101114;-84
2021/07/21 09:44:40;;;;;;;4.90;2.55;;;25.40;78.70;;;19.77;100.00;101022.31;3511591;39;101340;-82
2021/07/21 09:47:16;;;;;;;5.90;2.35;;;25.50;76.40;;;20.80;100.00;101023.94;3512151;39;100743;-84
2021/07/21 09:49:46;;;;;;;3.33;2.17;;;25.60;76.40;;;21.26;100.00;101026.72;3528169;39;100669;-84
2021/07/21 09:52:20;;;;;;;4.15;2.67;;;25.60;76.50;;;20.87;100.00;101029.41;3515035;39;101963;-84
2021/07/21 09:55:15;;;;;;;3.75;2.38;;;25.80;75.80;;;20.84;100.00;101025.22;3501958;39;103105;-84
2021/07/21 09:57:43;;;;;;;3.40;2.03;;;25.90;74.50;;;21.33;100.00;101021.28;3521685;39;100547;-85
2021/07/21 10:00:22;;;;;;;3.13;1.88;;;25.90;73.10;;;20.21;100.00;101023.75;3516933;39;100153;-82
2021/07/21 10:02:51;;;;;;;3.15;2.72;;;26.10;72.30;;;19.84;100.00;101022.31;3511618;39;101396;-84
2021/07/21 10:05:19;;;;;;;4.13;2.45;;;26.30;71.60;;;20.16;100.00;101027.06;3511301;39;101353;-82
2021/07/21 10:07:52;;;;;;;3.67;2.53;;;25.80;71.20;;;20.17;100.00;101022.47;3501330;39;102674;-83
2021/07/21 10:10:23;;;;;;;5.10;2.75;;;25.80;71.10;;;20.01;100.00;101029.13;3510237;39;100224;-83
2021/07/21 10:13:06;;;;;;;3.78;2.35;;;25.60;71.20;;;20.40;100.00;101021.13;3508875;39;101249;-84
2021/07/21 10:15:35;;;;;;;4.68;2.72;;;25.60;72.00;;;20.01;100.00;101024.53;3508708;39;101032;-84
2021/07/21 10:18:11;;;;;;;3.30;2.30;;;25.40;71.20;;;20.11;100.00;101026.00;3509704;39;100306;-81
2021/07/21 10:20:41;;;;;;;3.67;2.58;;;25.20;71.70;;;20.00;100.00;101022.84;3504598;39;100672;-84
2021/07/21 10:23:10;;;;;;;6.25;3.13;;;25.10;71.60;;;19.92;100.00;101027.59;3509804;39;102690;-84
2021/07/21 10:25:39;;;;;;;3.42;2.08;;;24.90;72.10;;;20.39;100.00;101022.19;3518384;39;101421;-83